Time;durP1;ratioP1;P1;durP2;ratioP2;P2;SDS_P1;SDS_P2;PMS_P1;PMS_P2;Temp;Humidity;BMP_temperature;BMP_pressure;BME280_temperature;BME280_humidity;BME280_pressure;Samples;Min_cycle;Max_cycle;Signal;HPM_P1;HPM_P2
2021/01/24 00:00:11;;;;;;;25.72;15.35;;;;;;;2.40;88.86;98595.52;1741379;81;21633;-57
2021/01/24 00:02:42;;;;;;;23.90;14.95;;;;;;;2.35;89.09;98599.45;1720890;82;21137;-57
2021/01/24 00:05:10;;;;;;;23.10;15.85;;;;;;;2.34;89.22;98603.72;1741146;81;21166;-57
2021/01/24 00:07:37;;;;;;;25.17;17.07;;;;;;;2.45;88.87;98594.23;1742161;81;21139;-56
2021/01/24 00:10:06;;;;;;;22.05;14.40;;;;;;;2.43;88.95;98596.36;1740278;82;21660;-57
2021/01/24 00:12:33;;;;;;;22.22;15.13;;;;;;;2.39;89.12;98584.48;1741343;81;21158;-56
2021/01/24 00:15:01;;;;;;;23.15;15.23;;;;;;;2.44;88.97;98580.50;1741013;81;21146;-56
2021/01/24 00:17:29;;;;;;;24.82;16.23;;;;;;;2.49;88.75;98586.48;1767151;81;21126;-57
2021/01/24 00:19:58;;;;;;;22.95;15.83;;;;;;;2.40;89.09;98579.92;1746638;81;21697;-57
2021/01/24 00:22:27;;;;;;;23.15;15.70;;;;;;;2.47;89.04;98569.81;1721280;81;21217;-56
2021/01/24 00:24:55;;;;;;;18.90;14.05;;;;;;;2.45;89.06;98566.55;1750197;81;21245;-58
2021/01/24 00:27:23;;;;;;;19.98;14.10;;;;;;;2.38;89.31;98570.76;1776765;80;21181;-56
2021/01/24 00:29:51;;;;;;;20.50;14.47;;;;;;;2.40;89.31;98572.69;1750551;80;21142;-57
2021/01/24 00:32:19;;;;;;;20.52;14.90;;;;;;;2.50;88.94;98552.67;1749202;80;21589;-57
2021/01/24 00:34:46;;;;;;;19.45;13.58;;;;;;;2.48;88.96;98557.98;1751275;80;21157;-57
2021/01/24 00:37:14;;;;;;;19.07;14.07;;;;;;;2.43;89.23;98549.88;1748780;82;21193;-57
2021/01/24 00:39:41;;;;;;;22.73;14.65;;;;;;;2.55;88.76;98540.38;1748704;82;21173;-57
2021/01/24 00:42:09;;;;;;;21.25;14.90;;;;;;;2.53;88.77;98549.20;1754880;80;21153;-56
2021/01/24 00:44:37;;;;;;;17.05;12.85;;;;;;;2.44;89.17;98538.87;1767946;80;21973;-57
2021/01/24 00:47:05;;;;;;;22.48;15.25;;;;;;;2.53;88.88;98539.79;1712975;84;21755;-57
2021/01/24 00:49:33;;;;;;;21.00;14.45;;;;;;;2.50;88.87;98532.53;1765843;80;21161;-57
2021/01/24 00:52:01;;;;;;;18.23;12.73;;;;;;;2.38;89.29;98530.47;1751993;80;21181;-56
2021/01/24 00:54:29;;;;;;;20.70;14.87;;;;;;;2.45;89.24;98532.45;1729215;80;21161;-56
2021/01/24 00:56:57;;;;;;;19.55;13.13;;;;;;;2.50;88.96;98541.11;1691947;83;21214;-57
2021/01/24 00:59:24;;;;;;;18.62;13.05;;;;;;;2.44;89.12;98536.19;1730399;83;21181;-56
2021/01/24 01:01:51;;;;;;;16.80;11.65;;;;;;;2.50;89.06;98533.87;1694881;83;21185;-56
2021/01/24 01:04:19;;;;;;;17.70;12.85;;;;;;;2.57;88.68;98526.97;1758636;80;21154;-57
2021/01/24 01:06:48;;;;;;;20.35;13.88;;;;;;;2.51;88.91;98526.07;1757281;80;21161;-56
2021/01/24 01:09:16;;;;;;;17.65;12.05;;;;;;;2.44;89.26;98522.75;1663919;83;21574;-56
2021/01/24 01:11:44;;;;;;;21.62;13.83;;;;;;;2.56;88.81;98528.02;1779413;80;21150;-56
2021/01/24 01:14:11;;;;;;;17.32;12.90;;;;;;;2.58;88.79;98529.13;1779485;80;21174;-57
2021/01/24 01:16:38;;;;;;;15.80;12.15;;;;;;;2.45;89.19;98521.70;1765335;80;21319;-56
2021/01/24 01:19:06;;;;;;;18.82;12.70;;;;;;;2.49;89.22;98526.05;1766949;80;21148;-56
2021/01/24 01:21:33;;;;;;;17.87;13.13;;;;;;;2.59;88.82;98525.39;1752236;80;21146;-57
2021/01/24 01:24:01;;;;;;;17.20;12.58;;;;;;;2.57;88.81;98518.09;1778590;80;21577;-57
2021/01/24 01:26:28;;;;;;;17.98;11.65;;;;;;;2.45;89.31;98513.64;1708816;83;21356;-58
2021/01/24 01:28:56;;;;;;;16.52;11.55;;;;;;;2.54;89.10;98521.28;1742720;81;21280;-56
2021/01/24 01:31:23;;;;;;;18.25;13.25;;;;;;;2.56;89.07;98511.08;1758377;81;21157;-56
2021/01/24 01:33:50;;;;;;;15.13;10.78;;;;;;;2.49;89.31;98510.74;1745990;81;21578;-56
2021/01/24 01:36:19;;;;;;;16.07;11.30;;;;;;;2.54;89.24;98509.19;1745491;81;21178;-56
2021/01/24 01:38:46;;;;;;;18.23;12.07;;;;;;;2.62;89.00;98510.11;1755088;81;21145;-57
2021/01/24 01:41:13;;;;;;;16.62;12.03;;;;;;;2.59;89.12;98508.70;1683598;84;21584;-56
2021/01/24 01:43:41;;;;;;;13.45;9.95;;;;;;;2.53;89.46;98499.50;1766694;81;21161;-57
2021/01/24 01:46:09;;;;;;;15.40;10.98;;;;;;;2.61;89.24;98500.41;1741735;81;21165;-56
2021/01/24 01:48:37;;;;;;;14.47;10.48;;;;;;;2.67;89.04;98496.19;1746313;81;21178;-56
2021/01/24 01:51:04;;;;;;;13.85;9.70;;;;;;;2.63;89.24;98499.62;1742555;81;21960;-56
2021/01/24 01:53:35;;;;;;;12.58;9.53;;;;;;;2.66;89.21;98497.80;1720385;82;21201;-57
2021/01/24 01:56:03;;;;;;;14.20;10.60;;;;;;;2.74;88.98;98492.78;1721250;81;21165;-56
2021/01/24 01:58:30;;;;;;;13.25;9.93;;;;;;;2.73;89.15;98487.67;1759831;81;21578;-56
2021/01/24 02:00:58;;;;;;;16.17;9.38;;;;;;;2.70;89.27;98491.65;1741007;81;21534;-57
2021/01/24 02:03:42;;;;;;;13.03;9.28;;;;;;;2.81;89.06;98492.58;1706686;84;21605;-56
2021/01/24 02:06:23;;;;;;;17.48;9.75;;;;;;;2.81;89.06;98485.86;1744332;81;21175;-56
2021/01/24 02:09:11;;;;;;;12.53;8.95;;;;;;;2.75;89.39;98484.19;1746166;81;21170;-56
2021/01/24 02:12:02;;;;;;;11.28;8.60;;;;;;;2.80;89.44;98478.89;1745942;79;63384;-63
2021/01/24 02:14:31;;;;;;;13.65;9.88;;;;;;;2.83;89.40;98474.34;1726888;82;21175;-65
2021/01/24 02:17:00;;;;;;;12.00;8.28;;;;;;;2.78;89.81;98479.13;1737467;82;21139;-66
2021/01/24 02:20:13;;;;;;;13.38;8.88;;;;;;;2.85;89.72;98481.61;1737597;82;21186;-65
2021/01/24 02:22:43;;;;;;;15.55;9.13;;;;;;;2.93;89.49;98473.11;1709696;82;21731;-66
2021/01/24 02:25:19;;;;;;;11.80;7.53;;;;;;;2.92;89.60;98479.53;1725332;82;21181;-66
2021/01/24 02:28:01;;;;;;;10.38;7.30;;;;;;;2.93;89.70;98476.61;1720611;82;21934;-64
2021/01/24 02:30:34;;;;;;;11.65;8.60;;;;;;;2.99;89.61;98472.90;1738062;82;21620;-64
2021/01/24 02:33:11;;;;;;;9.48;6.95;;;;;;;2.95;89.82;98466.92;1736408;82;21631;-64
2021/01/24 02:35:43;;;;;;;10.70;7.08;;;;;;;3.02;89.56;98460.82;1735803;82;21226;-64
2021/01/24 02:38:11;;;;;;;9.88;7.28;;;;;;;3.11;89.31;98467.91;1736145;82;21158;-64
2021/01/24 02:40:39;;;;;;;10.82;7.47;;;;;;;3.04;89.57;98460.58;1712539;82;21713;-64
2021/01/24 02:43:08;;;;;;;14.33;8.18;;;;;;;3.12;89.46;98468.19;1737365;82;21568;-64
2021/01/24 02:45:36;;;;;;;9.68;7.72;;;;;;;3.17;89.28;98465.01;1735209;82;21725;-64
2021/01/24 02:48:04;;;;;;;10.23;7.40;;;;;;;3.12;89.50;98468.98;1712450;82;22094;-64
2021/01/24 02:50:32;;;;;;;8.95;7.08;;;;;;;3.13;89.62;98463.89;1737855;82;21602;-64
2021/01/24 02:53:00;;;;;;;9.68;7.47;;;;;;;3.22;89.32;98465.59;1737613;82;21192;-64
2021/01/24 02:55:30;;;;;;;9.53;7.12;;;;;;;3.21;89.38;98456.72;1712638;82;21141;-63
2021/01/24 02:57:57;;;;;;;8.20;6.25;;;;;;;3.15;89.64;98459.61;1736550;82;21145;-64
2021/01/24 03:00:27;;;;;;;11.57;7.97;;;;;;;3.17;89.70;98450.22;1712960;82;21155;-64
2021/01/24 03:02:54;;;;;;;9.93;8.05;;;;;;;3.27;89.45;98456.21;1732137;82;21136;-65
2021/01/24 03:05:23;;;;;;;8.88;7.22;;;;;;;3.17;89.73;98448.88;1737645;82;21157;-64
2021/01/24 03:07:52;;;;;;;10.35;7.20;;;;;;;3.19;89.88;98451.32;1737748;82;21139;-64
2021/01/24 03:10:19;;;;;;;11.53;7.65;;;;;;;3.27;89.51;98450.30;1738006;82;21739;-64
2021/01/24 03:13:26;;;;;;;8.50;6.90;;;;;;;3.23;89.53;98451.88;1712966;82;21699;-64
2021/01/24 03:15:54;;;;;;;9.95;7.22;;;;;;;3.26;89.70;98435.78;1713555;82;21165;-64
2021/01/24 03:18:24;;;;;;;11.45;7.53;;;;;;;3.31;89.42;98433.13;1712924;82;21175;-64
2021/01/24 03:20:53;;;;;;;11.45;6.72;;;;;;;3.26;89.56;98424.47;1737520;82;21131;-65
2021/01/24 03:23:21;;;;;;;9.18;7.03;;;;;;;3.24;89.79;98427.95;1737819;82;21145;-65
2021/01/24 03:25:48;;;;;;;8.40;6.60;;;;;;;3.37;89.45;98423.48;1713049;82;21170;-64
2021/01/24 03:28:16;;;;;;;8.20;6.58;;;;;;;3.31;89.67;98424.52;1713097;82;21314;-64
2021/01/24 03:30:43;;;;;;;9.85;7.03;;;;;;;3.35;89.64;98419.44;1737561;82;21597;-64
2021/01/24 03:33:10;;;;;;;9.48;7.50;;;;;;;3.43;89.40;98421.66;1737733;82;21884;-64
2021/01/24 03:35:38;;;;;;;11.28;8.63;;;;;;;3.37;89.71;98410.04;1712947;82;21136;-62
2021/01/24 03:38:06;;;;;;;8.95;7.08;;;;;;;3.38;89.87;98411.67;1737270;81;21137;-64
2021/01/24 03:40:33;;;;;;;11.85;7.85;;;;;;;3.46;89.65;98406.34;1737491;81;21627;-64
2021/01/24 03:43:00;;;;;;;12.47;8.63;;;;;;;3.45;89.65;98409.57;1737472;82;21179;-64
2021/01/24 03:45:28;;;;;;;10.13;7.20;;;;;;;3.44;89.85;98400.40;1737420;82;21197;-64
2021/01/24 03:47:55;;;;;;;10.53;7.28;;;;;;;3.53;89.65;98408.81;1737664;82;21312;-64
2021/01/24 03:50:22;;;;;;;11.83;8.10;;;;;;;3.57;89.50;98399.16;1737881;82;21173;-64
2021/01/24 03:52:50;;;;;;;13.40;8.00;;;;;;;3.49;89.82;98403.95;1737573;82;21149;-64
2021/01/24 03:55:18;;;;;;;9.58;7.53;;;;;;;3.51;90.02;98396.42;1737987;82;21591;-64
2021/01/24 03:57:45;;;;;;;8.95;7.55;;;;;;;3.62;89.56;98385.72;1737919;82;21190;-64
2021/01/24 04:00:13;;;;;;;10.75;8.48;;;;;;;3.59;89.74;98396.48;1737121;82;21725;-64
2021/01/24 04:02:43;;;;;;;9.38;7.42;;;;;;;3.57;89.86;98379.80;1737279;82;21702;-65
2021/01/24 04:05:10;;;;;;;10.53;7.25;;;;;;;3.62;90.03;98392.45;1737394;82;21615;-64
2021/01/24 04:07:38;;;;;;;10.43;7.42;;;;;;;3.72;89.64;98389.85;1737695;82;21144;-64
2021/01/24 04:10:06;;;;;;;8.70;6.80;;;;;;;3.62;90.02;98392.45;1737895;82;21195;-64
2021/01/24 04:12:34;;;;;;;10.08;7.45;;;;;;;3.65;90.28;98396.00;1737445;82;21503;-64
2021/01/24 04:15:03;;;;;;;14.10;8.78;;;;;;;3.75;89.91;98392.83;1738527;82;21271;-64
2021/01/24 04:17:32;;;;;;;10.18;7.70;;;;;;;3.76;89.89;98388.23;1736330;82;21179;-64
2021/01/24 04:20:00;;;;;;;9.45;7.05;;;;;;;3.72;90.32;98383.13;1737042;82;21645;-64
2021/01/24 04:22:27;;;;;;;11.12;8.03;;;;;;;3.84;89.80;98375.64;1736976;82;21714;-64
2021/01/24 04:24:55;;;;;;;8.75;6.78;;;;;;;3.82;89.99;98377.27;1738501;82;21727;-64
2021/01/24 04:27:22;;;;;;;10.78;7.50;;;;;;;3.82;90.03;98375.91;1737967;82;21140;-63
2021/01/24 04:29:49;;;;;;;10.90;8.80;;;;;;;3.90;89.84;98371.36;1737987;82;21736;-63
2021/01/24 04:32:17;;;;;;;9.58;7.37;;;;;;;3.91;89.90;98370.83;1735535;82;21312;-64
2021/01/24 04:34:44;;;;;;;8.65;6.78;;;;;;;3.85;90.23;98367.84;1737848;82;21245;-64
2021/01/24 04:37:12;;;;;;;10.18;7.35;;;;;;;3.91;89.93;98371.64;1713567;82;21283;-64
2021/01/24 04:39:40;;;;;;;11.18;8.05;;;;;;;3.97;89.75;98371.12;1738149;82;21168;-64
2021/01/24 04:42:07;;;;;;;9.48;6.72;;;;;;;3.91;89.97;98371.64;1735280;82;21145;-65
2021/01/24 04:44:34;;;;;;;10.48;8.28;;;;;;;3.99;89.94;98371.69;1715554;82;21345;-64
2021/01/24 04:47:02;;;;;;;10.80;8.60;;;;;;;4.05;89.85;98373.32;1737765;82;21135;-65
2021/01/24 04:49:30;;;;;;;8.53;6.42;;;;;;;3.99;90.23;98362.26;1737998;82;21152;-65
2021/01/24 04:51:57;;;;;;;9.63;7.22;;;;;;;4.02;90.42;98369.81;1738272;82;21304;-64
2021/01/24 04:54:25;;;;;;;13.43;9.65;;;;;;;4.09;90.17;98366.34;1738618;81;21343;-64
2021/01/24 04:56:52;;;;;;;9.90;7.90;;;;;;;4.10;90.14;98360.42;1737632;81;21187;-64
2021/01/24 04:59:20;;;;;;;8.55;6.87;;;;;;;4.13;90.11;98360.70;1712008;82;21327;-64
2021/01/24 05:01:47;;;;;;;9.40;7.53;;;;;;;4.22;89.91;98368.54;1715920;82;21175;-64
2021/01/24 05:04:15;;;;;;;9.48;7.10;;;;;;;4.20;90.08;98362.62;1737781;82;21413;-64
2021/01/24 05:06:42;;;;;;;9.95;6.78;;;;;;;4.20;90.22;98335.69;1734468;82;21315;-64
2021/01/24 05:09:10;;;;;;;10.30;7.80;;;;;;;4.32;89.75;98350.28;1729661;82;21295;-65
2021/01/24 05:11:38;;;;;;;9.53;7.15;;;;;;;4.26;89.99;98351.31;1737770;82;21210;-64
2021/01/24 05:14:17;;;;;;;9.60;7.30;;;;;;;4.31;89.94;98341.38;1737822;82;21573;-64
2021/01/24 05:16:44;;;;;;;9.18;7.58;;;;;;;4.36;89.67;98348.64;1737300;82;21162;-65
2021/01/24 05:19:12;;;;;;;9.03;6.75;;;;;;;4.28;89.95;98344.61;1735230;82;21317;-65
2021/01/24 05:21:39;;;;;;;9.35;7.00;;;;;;;4.29;90.01;98334.08;1713373;82;21607;-65
2021/01/24 05:24:15;;;;;;;10.23;7.12;;;;;;;4.34;90.04;98334.11;1737708;82;21604;-65
2021/01/24 05:26:46;;;;;;;10.53;7.22;;;;;;;4.40;89.74;98338.43;1733680;82;21325;-65
2021/01/24 05:29:27;;;;;;;9.48;7.00;;;;;;;4.29;90.03;98332.73;1736734;82;21204;-65
2021/01/24 05:31:55;;;;;;;8.78;6.20;;;;;;;4.31;90.06;98344.08;1737037;82;21175;-65
2021/01/24 05:34:26;;;;;;;10.43;7.35;;;;;;;4.39;89.68;98340.06;1737743;82;21174;-65
2021/01/24 05:36:54;;;;;;;10.28;6.72;;;;;;;4.31;90.02;98343.27;1736703;82;21609;-65
2021/01/24 05:39:22;;;;;;;9.48;7.33;;;;;;;4.32;89.95;98341.63;1700134;84;21356;-65
2021/01/24 05:41:52;;;;;;;11.60;7.62;;;;;;;4.42;89.63;98345.73;1716977;82;21513;-65
2021/01/24 05:44:22;;;;;;;13.72;9.10;;;;;;;4.33;89.81;98325.75;1735606;82;21606;-66
2021/01/24 05:46:49;;;;;;;10.00;7.08;;;;;;;4.32;90.04;98336.24;1714120;84;21181;-66
2021/01/24 05:49:23;;;;;;;11.18;8.55;;;;;;;4.38;89.74;98340.59;1728649;82;21216;-65
2021/01/24 05:52:04;;;;;;;9.30;7.37;;;;;;;4.35;89.90;98339.78;1702413;82;21169;-65
2021/01/24 05:54:45;;;;;;;8.05;6.80;;;;;;;4.36;89.88;98341.91;1726919;82;21218;-64
2021/01/24 05:57:14;;;;;;;9.88;7.80;;;;;;;4.41;89.64;98345.45;1728046;82;21731;-65
2021/01/24 05:59:54;;;;;;;8.70;7.35;;;;;;;4.33;89.90;98333.02;1725997;82;21188;-65
2021/01/24 06:02:23;;;;;;;9.38;7.25;;;;;;;4.32;90.17;98334.11;1733594;82;21137;-65
2021/01/24 06:04:51;;;;;;;13.43;8.38;;;;;;;4.40;89.70;98330.88;1734789;82;21604;-65
2021/01/24 06:07:18;;;;;;;8.73;7.30;;;;;;;4.34;89.81;98321.17;1736694;82;21588;-65
2021/01/24 06:09:46;;;;;;;10.70;7.65;;;;;;;4.34;89.69;98324.68;1727722;82;21549;-65
2021/01/24 06:12:17;;;;;;;10.90;7.55;;;;;;;4.39;89.50;98321.20;1731063;82;21210;-65
2021/01/24 06:14:48;;;;;;;11.30;8.35;;;;;;;4.38;89.54;98325.77;1728646;82;21331;-65
2021/01/24 06:17:38;;;;;;;13.35;8.53;;;;;;;4.35;89.77;98320.92;1718861;82;21436;-65
2021/01/24 06:20:07;;;;;;;12.03;8.60;;;;;;;4.45;89.56;98320.94;1724693;82;21181;-66
2021/01/24 06:22:58;;;;;;;10.28;8.03;;;;;;;4.36;89.76;98308.23;1725234;82;21735;-65
2021/01/24 06:25:38;;;;;;;10.88;8.83;;;;;;;4.42;89.72;98305.31;1737909;82;21137;-66
2021/01/24 06:28:10;;;;;;;11.63;9.18;;;;;;;4.43;89.71;98305.56;1729291;82;21488;-65
2021/01/24 06:30:37;;;;;;;9.48;7.75;;;;;;;4.38;89.95;98302.06;1722991;83;21193;-66
2021/01/24 06:33:14;;;;;;;11.33;8.95;;;;;;;4.39;90.02;98310.42;1737104;82;21192;-66
2021/01/24 06:35:50;;;;;;;13.43;9.85;;;;;;;4.47;89.67;98309.34;1727597;82;21151;-66
2021/01/24 06:38:36;;;;;;;13.38;9.20;;;;;;;4.42;89.89;98316.63;1723214;82;21190;-66
2021/01/24 06:41:07;;;;;;;11.60;8.33;;;;;;;4.47;89.75;98316.08;1729524;82;21195;-65
2021/01/24 06:43:45;;;;;;;13.62;10.08;;;;;;;4.49;89.58;98308.56;1736919;82;21577;-64
2021/01/24 06:46:30;;;;;;;12.90;9.03;;;;;;;4.39;90.08;98313.12;1727912;82;21125;-65
2021/01/24 06:48:57;;;;;;;13.38;10.48;;;;;;;4.48;89.91;98312.32;1720843;83;21219;-65
2021/01/24 06:51:36;;;;;;;18.45;11.85;;;;;;;4.49;89.76;98309.91;1724631;82;21649;-64
2021/01/24 06:54:08;;;;;;;12.78;9.73;;;;;;;4.46;90.02;98319.84;1727062;82;21161;-64
2021/01/24 06:56:44;;;;;;;14.53;11.25;;;;;;;4.57;89.74;98308.55;1725729;82;21124;-65
2021/01/24 06:59:12;;;;;;;11.95;9.90;;;;;;;4.53;89.80;98306.67;1732155;82;21183;-64
2021/01/24 07:01:42;;;;;;;13.93;10.53;;;;;;;4.47;90.01;98308.00;1726702;82;21714;-65
2021/01/24 07:04:31;;;;;;;14.98;10.78;;;;;;;4.53;89.99;98306.14;1723010;82;21214;-65
2021/01/24 07:07:16;;;;;;;17.65;13.28;;;;;;;4.62;89.76;98299.66;1724010;82;21181;-65
2021/01/24 07:09:45;;;;;;;17.02;12.07;;;;;;;4.56;90.16;98315.03;1729822;82;21695;-65
2021/01/24 07:12:13;;;;;;;16.75;12.37;;;;;;;4.62;89.99;98305.05;1723504;82;21197;-65
2021/01/24 07:14:45;;;;;;;21.23;14.83;;;;;;;4.65;89.96;98306.67;1723387;82;21157;-65
2021/01/24 07:17:15;;;;;;;17.92;12.70;;;;;;;4.66;90.17;98313.70;1726931;82;21205;-64
2021/01/24 07:19:51;;;;;;;19.52;14.25;;;;;;;4.73;89.95;98303.99;1734314;82;21306;-65
2021/01/24 07:22:23;;;;;;;22.05;15.32;;;;;;;4.79;89.73;98305.61;1767514;80;21173;-65
2021/01/24 07:24:53;;;;;;;21.42;15.23;;;;;;;4.73;90.03;98308.04;1754428;80;21104;-64
2021/01/24 07:27:23;;;;;;;22.13;16.17;;;;;;;4.75;89.95;98300.48;1767602;80;21279;-64
2021/01/24 07:29:51;;;;;;;24.95;16.90;;;;;;;4.80;89.67;98303.19;1776653;80;21125;-68
2021/01/24 07:32:23;;;;;;;23.45;15.28;;;;;;;4.77;90.02;98307.78;1775256;80;21644;-67
2021/01/24 07:34:53;;;;;;;24.30;16.55;;;;;;;4.79;90.04;98298.87;1767355;81;21168;-67
2021/01/24 07:37:21;;;;;;;26.42;17.45;;;;;;;4.86;89.78;98304.27;1770392;80;21560;-68
2021/01/24 07:39:51;;;;;;;26.93;18.10;;;;;;;4.82;90.04;98306.41;1768849;80;21153;-69
2021/01/24 07:43:33;;;;;;;28.55;19.15;;;;;;;4.96;89.76;98300.75;1749968;79;23529;-56
2021/01/24 07:46:02;;;;;;;29.67;19.35;;;;;;;4.88;90.11;98305.36;1677579;83;21651;-54
2021/01/24 07:48:29;;;;;;;27.27;18.20;;;;;;;4.94;89.97;98308.31;1707742;82;21157;-57
2021/01/24 07:50:57;;;;;;;31.48;20.17;;;;;;;5.00;89.72;98302.65;1705135;83;21605;-58
2021/01/24 07:53:25;;;;;;;30.85;21.62;;;;;;;5.02;89.61;98299.69;1705702;83;21165;-54
2021/01/24 07:55:53;;;;;;;31.50;19.42;;;;;;;4.97;89.84;98295.64;1697889;83;21153;-56
2021/01/24 07:58:22;;;;;;;30.60;19.57;;;;;;;5.07;89.47;98278.09;1714756;83;21477;-56
2021/01/24 08:00:49;;;;;;;33.20;21.75;;;;;;;5.11;89.54;98273.78;1720577;83;21152;-55
2021/01/24 08:03:21;;;;;;;32.08;20.80;;;;;;;5.06;89.81;98281.08;1696531;83;21168;-54
2021/01/24 08:05:48;;;;;;;34.78;21.62;;;;;;;5.10;89.80;98271.37;1712616;83;21121;-55
2021/01/24 08:08:16;;;;;;;30.90;19.82;;;;;;;5.19;89.66;98277.82;1722481;83;21168;-55
2021/01/24 08:10:44;;;;;;;32.28;20.15;;;;;;;5.14;89.83;98260.28;1698040;83;22024;-56
2021/01/24 08:13:11;;;;;;;30.10;19.65;;;;;;;5.21;89.72;98260.84;1668334;85;21222;-55
2021/01/24 08:15:38;;;;;;;36.48;22.70;;;;;;;5.18;89.65;98255.96;1715736;83;21177;-56
2021/01/24 08:18:06;;;;;;;34.00;20.88;;;;;;;5.28;89.71;98272.94;1717907;83;21695;-54
2021/01/24 08:20:34;;;;;;;41.68;22.37;;;;;;;5.28;89.79;98273.51;1719621;83;21302;-56
2021/01/24 08:23:01;;;;;;;36.40;22.73;;;;;;;5.40;89.44;98268.07;1719719;82;21589;-55
2021/01/24 08:25:29;;;;;;;34.35;21.62;;;;;;;5.43;89.33;98261.31;1692033;83;21140;-56
2021/01/24 08:27:56;;;;;;;32.35;20.60;;;;;;;5.37;89.65;98263.22;1663982;85;21283;-56
2021/01/24 08:30:24;;;;;;;32.65;20.68;;;;;;;5.50;89.38;98255.08;1683240;83;21164;-55
2021/01/24 08:32:51;;;;;;;37.28;21.85;;;;;;;5.52;89.39;98252.94;1698868;83;21194;-55
2021/01/24 08:35:19;;;;;;;34.10;20.62;;;;;;;5.51;89.49;98253.47;1712443;82;21161;-58
2021/01/24 08:37:46;;;;;;;35.25;20.75;;;;;;;5.53;89.50;98251.29;1707675;83;21165;-55
2021/01/24 08:40:14;;;;;;;35.90;22.20;;;;;;;5.67;89.13;98249.38;1686166;83;21545;-54
2021/01/24 08:42:50;;;;;;;33.25;21.33;;;;;;;5.66;89.21;98254.50;1711657;83;21222;-58
2021/01/24 08:45:21;;;;;;;35.40;21.05;;;;;;;5.63;89.43;98256.41;1708574;83;21137;-56
2021/01/24 08:47:55;;;;;;;35.65;19.73;;;;;;;5.75;89.06;98260.94;1699832;83;21185;-55
2021/01/24 08:50:34;;;;;;;33.95;20.45;;;;;;;5.77;89.01;98249.33;1694670;85;21165;-58
2021/01/24 08:53:03;;;;;;;;;;;;;;;5.68;89.21;98251.78;1674206;84;21172;-55
2021/01/24 08:55:33;;;;;;;29.82;18.82;;;;;;;5.77;89.01;98257.44;1699322;83;20174;-56
2021/01/24 08:58:01;;;;;;;35.90;21.90;;;;;;;5.77;89.03;98255.55;1713594;83;21232;-54
2021/01/24 09:00:28;;;;;;;35.03;20.10;;;;;;;5.72;89.20;98256.91;1722639;83;21153;-55
2021/01/24 09:02:57;;;;;;;32.78;18.75;;;;;;;5.77;89.13;98258.78;1649365;86;21593;-54
2021/01/24 09:05:31;;;;;;;32.13;19.20;;;;;;;5.86;88.63;98258.49;1656778;83;21291;-54
2021/01/24 09:07:58;;;;;;;32.83;19.12;;;;;;;5.80;88.75;98259.58;1722870;83;21165;-57
2021/01/24 09:10:30;;;;;;;31.17;17.82;;;;;;;5.85;88.60;98255.48;1702342;83;21156;-55
2021/01/24 09:13:03;;;;;;;29.37;20.35;;;;;;;5.90;88.37;98242.00;1694639;83;21588;-55
2021/01/24 09:15:32;;;;;;;31.52;18.45;;;;;;;5.85;88.48;98243.34;1697329;83;21614;-56
2021/01/24 09:18:00;;;;;;;29.10;18.55;;;;;;;5.90;88.40;98236.06;1722718;83;21255;-55
2021/01/24 09:20:29;;;;;;;33.63;18.52;;;;;;;5.91;88.22;98225.53;1722866;83;21137;-56
2021/01/24 09:22:56;;;;;;;28.52;18.07;;;;;;;5.88;88.41;98238.22;1711967;83;21164;-56
2021/01/24 09:25:24;;;;;;;27.77;16.15;;;;;;;5.93;88.34;98231.99;1696532;83;21165;-55
2021/01/24 09:27:51;;;;;;;32.78;19.35;;;;;;;6.04;88.02;98238.15;1665867;83;21181;-56
2021/01/24 09:30:20;;;;;;;35.10;18.42;;;;;;;6.02;87.90;98230.88;1697562;83;21146;-56
2021/01/24 09:32:47;;;;;;;26.57;15.30;;;;;;;5.98;88.08;98226.04;1695635;83;21323;-56
2021/01/24 09:35:15;;;;;;;30.62;16.90;;;;;;;6.10;87.68;98229.73;1719031;83;21576;-57
2021/01/24 09:37:43;;;;;;;30.97;18.52;;;;;;;6.11;87.52;98221.09;1649168;85;21208;-55
2021/01/24 09:40:11;;;;;;;29.72;16.80;;;;;;;6.09;87.68;98220.58;1722667;83;21193;-56
2021/01/24 09:42:39;;;;;;;28.12;17.25;;;;;;;6.15;87.59;98219.45;1689328;82;21304;-55
2021/01/24 09:45:07;;;;;;;34.48;17.73;;;;;;;6.21;87.18;98215.62;1661432;85;21506;-56
2021/01/24 09:47:36;;;;;;;25.65;16.07;;;;;;;6.22;87.17;98220.76;1713282;83;21230;-56
2021/01/24 09:50:05;;;;;;;25.80;14.50;;;;;;;6.24;87.04;98211.00;1714731;83;21125;-56
2021/01/24 09:52:32;;;;;;;24.95;14.95;;;;;;;6.34;86.61;98217.72;1701702;83;21200;-57
2021/01/24 09:55:00;;;;;;;27.30;15.48;;;;;;;6.32;86.62;98218.52;1694347;83;21137;-56
2021/01/24 09:57:27;;;;;;;26.05;13.72;;;;;;;6.30;86.66;98201.25;1698005;82;21767;-56
2021/01/24 09:59:54;;;;;;;26.40;14.65;;;;;;;6.35;86.42;98212.02;1716035;82;21711;-57
2021/01/24 10:02:21;;;;;;;29.98;16.10;;;;;;;6.37;86.22;98214.45;1702130;83;21760;-55
2021/01/24 10:04:49;;;;;;;27.65;14.63;;;;;;;6.36;86.31;98209.58;1705926;83;21153;-57
2021/01/24 10:07:16;;;;;;;24.07;13.58;;;;;;;6.42;86.12;98202.23;1714132;83;21210;-57
2021/01/24 10:09:44;;;;;;;24.50;14.63;;;;;;;6.49;85.79;98209.47;1694516;82;21173;-57
2021/01/24 10:12:11;;;;;;;25.68;13.50;;;;;;;6.48;85.87;98205.95;1709727;83;21181;-55
2021/01/24 10:14:38;;;;;;;23.57;13.28;;;;;;;6.46;85.87;98200.58;1708391;83;21596;-55
2021/01/24 10:17:06;;;;;;;20.52;13.05;;;;;;;6.58;85.58;98184.81;1707353;83;21291;-57
2021/01/24 10:19:33;;;;;;;24.90;13.93;;;;;;;6.55;85.48;98185.93;1706665;83;21202;-59
2021/01/24 10:22:00;;;;;;;25.70;12.28;;;;;;;6.50;85.65;98190.28;1687624;85;21154;-57
2021/01/24 10:24:28;;;;;;;29.20;12.13;;;;;;;6.59;85.42;98172.89;1703482;83;21295;-56
2021/01/24 10:26:55;;;;;;;25.12;13.13;;;;;;;6.64;85.20;98178.81;1693249;83;21318;-58
2021/01/24 10:29:22;;;;;;;20.45;11.15;;;;;;;6.60;85.31;98178.56;1708119;83;21199;-55
2021/01/24 10:31:50;;;;;;;23.15;11.90;;;;;;;6.56;85.19;98159.13;1699238;83;21169;-56
2021/01/24 10:34:18;;;;;;;23.87;12.30;;;;;;;6.70;85.01;98185.23;1696020;83;21141;-56
2021/01/24 10:36:45;;;;;;;17.45;10.38;;;;;;;6.69;85.14;98179.59;1708036;83;21149;-54
2021/01/24 10:39:13;;;;;;;19.90;11.08;;;;;;;6.70;85.15;98181.72;1716019;83;21295;-55
2021/01/24 10:41:40;;;;;;;21.33;11.83;;;;;;;6.80;84.87;98176.25;1711277;83;21633;-56
2021/01/24 10:44:07;;;;;;;19.50;11.80;;;;;;;6.74;85.12;98165.19;1688320;83;21137;-55
2021/01/24 10:46:35;;;;;;;19.42;10.45;;;;;;;6.79;85.12;98172.73;1665771;84;21178;-55
2021/01/24 10:49:03;;;;;;;21.62;13.25;;;;;;;6.84;84.86;98168.61;1673949;83;21173;-56
2021/01/24 10:51:30;;;;;;;22.50;10.28;;;;;;;6.79;85.18;98158.39;1688651;84;21681;-55
2021/01/24 10:53:58;;;;;;;19.30;10.43;;;;;;;6.78;85.24;98158.94;1703976;84;21170;-56
2021/01/24 10:56:25;;;;;;;23.45;12.03;;;;;;;6.85;85.05;98159.41;1695865;84;21140;-56
2021/01/24 10:58:52;;;;;;;28.90;11.00;;;;;;;6.83;85.15;98158.09;1704085;84;21166;-57
2021/01/24 11:01:20;;;;;;;19.12;10.88;;;;;;;6.77;85.42;98153.27;1692551;84;21312;-57
2021/01/24 11:03:47;;;;;;;20.92;12.82;;;;;;;6.88;85.20;98150.72;1704433;83;21121;-57
2021/01/24 11:06:16;;;;;;;18.02;11.85;;;;;;;6.84;85.40;98152.38;1706077;84;21308;-57
2021/01/24 11:08:44;;;;;;;16.15;10.25;;;;;;;6.83;85.51;98134.56;1705281;84;21126;-57
2021/01/24 11:11:12;;;;;;;22.17;11.45;;;;;;;6.92;84.94;98133.37;1708105;84;21126;-56
2021/01/24 11:13:39;;;;;;;20.27;11.03;;;;;;;6.95;85.03;98145.78;1697725;84;21181;-57
2021/01/24 11:16:06;;;;;;;19.65;10.15;;;;;;;6.91;85.19;98138.52;1665699;85;21165;-57
2021/01/24 11:18:34;;;;;;;22.80;10.98;;;;;;;6.97;84.96;98138.20;1662034;84;21174;-55
2021/01/24 11:21:04;;;;;;;19.67;10.88;;;;;;;7.00;84.79;98135.45;1656169;85;21169;-58
2021/01/24 11:23:32;;;;;;;18.07;11.00;;;;;;;6.96;84.94;98136.58;1680145;85;21315;-57
2021/01/24 11:25:59;;;;;;;18.77;10.70;;;;;;;6.99;84.87;98140.59;1690514;84;21612;-57
2021/01/24 11:28:26;;;;;;;22.67;11.53;;;;;;;7.06;84.54;98137.55;1691791;84;21191;-57
2021/01/24 11:30:54;;;;;;;18.75;10.50;;;;;;;6.97;84.84;98135.49;1707618;84;21162;-56
2021/01/24 11:33:21;;;;;;;14.85;9.13;;;;;;;7.03;84.68;98127.30;1708111;82;21174;-56
2021/01/24 11:35:51;;;;;;;23.18;11.12;;;;;;;7.07;84.21;98126.45;1707469;84;21138;-56
2021/01/24 11:38:18;;;;;;;22.55;11.48;;;;;;;7.05;84.34;98129.19;1700574;84;21149;-55
2021/01/24 11:40:46;;;;;;;19.57;9.33;;;;;;;7.09;84.24;98128.84;1687314;84;21141;-57